createdAt,value
2023-02-18T00:01:24.576Z,99589.38
2023-02-18T00:03:52.220Z,99589.56
2023-02-18T00:06:25.645Z,99587.25
2023-02-18T00:08:52.981Z,99574.78
2023-02-18T00:11:21.333Z,99582.97
2023-02-18T00:13:56.039Z,99581.31
2023-02-18T00:16:23.930Z,99570.25
2023-02-18T00:18:50.995Z,99567.44
2023-02-18T00:21:17.895Z,99566.78
2023-02-18T00:23:44.584Z,99557.66
2023-02-18T00:26:14.720Z,99562.69
2023-02-18T00:28:42.158Z,99557.66
2023-02-18T00:31:17.340Z,99552.59
2023-02-18T00:33:44.417Z,99549.53
2023-02-18T00:36:14.548Z,99557.06
2023-02-18T00:38:48.512Z,99551.03
2023-02-18T00:41:15.948Z,99546.66
2023-02-18T00:43:43.489Z,99544.88
2023-02-18T00:46:11.002Z,99545.13
2023-02-18T00:48:37.997Z,99536.16
2023-02-18T00:51:06.611Z,99540.25
2023-02-18T00:53:33.797Z,99546.88
2023-02-18T00:56:01.276Z,99544.50
2023-02-18T00:58:27.956Z,99537.91
2023-02-18T01:00:55.771Z,99538.00
2023-02-18T01:03:23.762Z,99535.41
2023-02-18T01:05:51.196Z,99536.97
2023-02-18T01:08:19.206Z,99531.75
2023-02-18T01:10:47.594Z,99528.13
2023-02-18T01:13:15.531Z,99527.63
2023-02-18T01:15:43.264Z,99545.50
2023-02-18T01:18:10.590Z,99537.75
2023-02-18T01:20:39.326Z,99522.72
2023-02-18T01:23:08.147Z,99531.25
2023-02-18T01:25:35.192Z,99529.69
2023-02-18T01:28:02.242Z,99529.00
2023-02-18T01:30:29.078Z,99538.38
2023-02-18T01:32:56.619Z,99525.69
2023-02-18T01:35:24.265Z,99541.41
2023-02-18T01:37:51.528Z,99532.78
2023-02-18T01:40:22.732Z,99532.09
2023-02-18T01:42:49.411Z,99525.53
2023-02-18T01:45:35.324Z,99527.09
2023-02-18T01:48:07.258Z,99538.97
2023-02-18T01:50:38.595Z,99526.38
2023-02-18T01:53:06.146Z,99513.06
2023-02-18T01:55:34.540Z,99522.44
2023-02-18T01:58:02.586Z,99516.50
2023-02-18T02:00:29.772Z,99509.75
2023-02-18T02:02:56.599Z,99529.00
2023-02-18T02:05:23.226Z,99516.19
2023-02-18T02:07:52.930Z,99522.38
2023-02-18T02:10:20.367Z,99521.59
2023-02-18T02:12:59.062Z,99512.16
2023-02-18T02:15:39.858Z,99509.50
2023-02-18T02:18:15.415Z,99512.19
2023-02-18T02:21:03.751Z,99516.50
2023-02-18T02:23:48.890Z,99515.72
2023-02-18T02:26:52.363Z,99514.81
2023-02-18T02:29:24.045Z,99502.75
2023-02-18T02:32:20.855Z,99498.69
2023-02-18T02:34:57.719Z,99494.72
2023-02-18T02:38:15.456Z,99498.88
2023-02-18T02:40:47.421Z,99494.69
2023-02-18T02:43:31.657Z,99501.47
2023-02-18T02:46:09.589Z,99499.56
2023-02-18T02:48:58.186Z,99486.25
2023-02-18T02:51:40.526Z,99494.97
2023-02-18T02:54:25.316Z,99491.69
2023-02-18T02:57:06.241Z,99489.03
2023-02-18T02:59:37.974Z,99486.56
2023-02-18T03:02:40.415Z,99486.47
2023-02-18T03:05:25.220Z,99478.69
2023-02-18T03:08:05.190Z,99481.25
2023-02-18T03:10:32.326Z,99496.63
2023-02-18T03:13:23.876Z,99490.63
2023-02-18T03:15:50.988Z,99485.63
2023-02-18T03:18:32.617Z,99494.06
2023-02-18T03:21:25.406Z,99489.88
2023-02-18T03:24:03.441Z,99490.84
2023-02-18T03:26:32.229Z,99481.78
2023-02-18T03:29:02.957Z,99497.03
2023-02-18T03:31:33.538Z,99505.56
2023-02-18T03:34:06.552Z,99495.25
2023-02-18T03:36:34.860Z,99493.69
2023-02-18T03:39:07.617Z,99485.91
2023-02-18T03:41:35.194Z,99487.47
2023-02-18T03:44:08.075Z,99486.78
2023-02-18T03:46:36.916Z,99487.56
2023-02-18T03:49:04.372Z,99485.91
2023-02-18T03:51:31.595Z,99488.47
2023-02-18T03:53:58.274Z,99491.03
2023-02-18T03:56:24.999Z,99495.25
2023-02-18T03:58:51.587Z,99485.28
2023-02-18T04:01:18.422Z,99498.16
2023-02-18T04:03:47.778Z,99501.56
2023-02-18T04:06:14.504Z,99498.19
2023-02-18T04:08:41.230Z,99501.53
2023-02-18T04:11:07.814Z,99498.25
2023-02-18T04:13:34.553Z,99495.66
2023-02-18T04:16:01.309Z,99493.03
2023-02-18T04:18:27.899Z,99487.91
2023-02-18T04:20:54.599Z,99490.53
2023-02-18T04:23:21.399Z,99488.84
2023-02-18T04:25:48.367Z,99491.31
2023-02-18T04:28:16.904Z,99489.75
2023-02-18T04:30:47.694Z,99495.75
2023-02-18T04:33:14.781Z,99491.44
2023-02-18T04:35:42.049Z,99499.88
2023-02-18T04:38:10.569Z,99496.41
2023-02-18T04:40:37.391Z,99495.66
2023-02-18T04:43:04.276Z,99494.16
2023-02-18T04:45:30.998Z,99497.00
2023-02-18T04:47:57.623Z,99503.75
2023-02-18T04:50:24.366Z,99500.16
2023-02-18T04:52:51.146Z,99511.94
2023-02-18T04:55:17.836Z,99502.66
2023-02-18T04:57:44.473Z,99495.34
2023-02-18T05:00:15.429Z,99498.06
2023-02-18T05:02:42.171Z,99494.56
2023-02-18T05:05:08.959Z,99510.63
2023-02-18T05:07:36.156Z,99506.41
2023-02-18T05:10:03.877Z,99505.53
2023-02-18T05:12:30.526Z,99503.81
2023-02-18T05:14:57.115Z,99507.19
2023-02-18T05:17:23.805Z,99507.19
2023-02-18T05:19:50.338Z,99502.84
2023-02-18T05:22:17.030Z,99504.50
2023-02-18T05:24:43.617Z,99501.97
2023-02-18T05:27:10.442Z,99513.94
2023-02-18T05:29:37.181Z,99514.09
2023-02-18T05:32:04.009Z,99508.31
2023-02-18T05:34:30.631Z,99509.09
2023-02-18T05:36:57.441Z,99512.38
2023-02-18T05:39:24.065Z,99506.50
2023-02-18T05:41:50.718Z,99496.34
2023-02-18T05:44:33.460Z,99498.84
2023-02-18T05:47:05.937Z,99508.25
2023-02-18T05:49:34.169Z,99500.78
2023-02-18T05:52:01.344Z,99499.78
2023-02-18T05:54:28.626Z,99508.31
2023-02-18T05:56:55.481Z,99516.75
2023-02-18T05:59:22.954Z,99526.13
2023-02-18T06:01:50.302Z,99511.78
2023-02-18T06:04:17.219Z,99507.41
2023-02-18T06:06:44.201Z,99521.09
2023-02-18T06:09:10.982Z,99521.13
2023-02-18T06:11:38.088Z,99518.59
2023-02-18T06:14:05.636Z,99520.31
2023-02-18T06:16:32.687Z,99521.03
2023-02-18T06:18:59.478Z,99527.94
2023-02-18T06:21:26.103Z,99527.13
2023-02-18T06:23:52.735Z,99538.16
2023-02-18T06:26:19.442Z,99528.06
2023-02-18T06:28:46.357Z,99527.22
2023-02-18T06:31:13.338Z,99530.47
2023-02-18T06:33:40.095Z,99469.25
2023-02-18T06:36:11.689Z,99529.88
2023-02-18T06:38:43.094Z,99542.56
2023-02-18T06:41:11.395Z,99531.44
2023-02-18T06:43:38.514Z,99526.38
2023-02-18T06:46:06.006Z,99533.84
2023-02-18T06:48:33.460Z,99539.91
2023-02-18T06:51:00.162Z,99538.22
2023-02-18T06:53:26.894Z,99543.38
2023-02-18T06:55:53.665Z,99531.41
2023-02-18T06:58:20.274Z,99530.59
2023-02-18T07:00:46.994Z,99529.75
2023-02-18T07:03:15.041Z,99535.59
2023-02-18T07:05:42.357Z,99534.78
2023-02-18T07:08:09.838Z,99538.09
2023-02-18T07:10:36.854Z,99534.69
2023-02-18T07:13:03.618Z,99541.38
2023-02-18T07:15:30.453Z,99538.00
2023-02-18T07:17:57.165Z,99547.41
2023-02-18T07:20:25.156Z,99543.22
2023-02-18T07:22:52.130Z,99529.63
2023-02-18T07:25:20.558Z,99540.34
2023-02-18T07:27:48.933Z,99534.34
2023-02-18T07:30:16.051Z,99530.97
2023-02-18T07:32:43.465Z,99530.88
2023-02-18T07:35:14.656Z,99533.53
2023-02-18T07:37:48.465Z,99545.38
2023-02-18T07:40:18.798Z,99548.50
2023-02-18T07:42:45.700Z,99552.69
2023-02-18T07:45:13.101Z,99554.47
2023-02-18T07:47:40.031Z,99552.69
2023-02-18T07:50:07.509Z,99549.16
2023-02-18T07:52:34.405Z,99555.09
2023-02-18T07:55:01.061Z,99550.91
2023-02-18T07:57:27.797Z,99560.19
2023-02-18T07:59:54.369Z,99555.00
2023-02-18T08:02:22.984Z,99553.28
2023-02-18T08:04:49.809Z,99558.00
2023-02-18T08:07:19.193Z,99560.56
2023-02-18T08:09:45.929Z,99564.69
2023-02-18T08:12:12.664Z,99561.25
2023-02-18T08:14:39.602Z,99562.94
2023-02-18T08:17:06.329Z,99557.91
2023-02-18T08:19:32.932Z,99564.69
2023-02-18T08:22:02.790Z,99555.34
2023-02-18T08:24:29.414Z,99554.47
2023-02-18T08:27:00.790Z,99561.19
2023-02-18T08:29:28.144Z,99561.09
2023-02-18T08:31:57.182Z,99552.63
2023-02-18T08:34:23.905Z,99555.06
2023-02-18T08:36:50.559Z,99554.06
2023-02-18T08:39:17.306Z,99556.44
2023-02-18T08:41:44.075Z,99547.13
2023-02-18T08:44:11.032Z,99547.03
2023-02-18T08:46:37.744Z,99546.03
2023-02-18T08:49:05.773Z,99549.34
2023-02-18T08:51:32.951Z,99539.13
2023-02-18T08:53:59.578Z,99539.03
2023-02-18T08:56:26.299Z,99544.03
2023-02-18T08:58:53.027Z,99546.53
2023-02-18T09:01:20.886Z,99541.34
2023-02-18T09:03:48.695Z,99539.59
2023-02-18T09:06:16.475Z,99537.78
2023-02-18T09:08:45.170Z,99542.91
2023-02-18T09:11:12.802Z,99541.16
2023-02-18T09:13:40.659Z,99539.38
2023-02-18T09:16:12.468Z,99533.38
2023-02-18T09:18:39.755Z,99527.38
2023-02-18T09:21:09.573Z,99531.47
2023-02-18T09:23:37.924Z,99520.28
2023-02-18T09:26:07.358Z,99515.81
2023-02-18T09:28:35.057Z,99518.22
2023-02-18T09:31:17.043Z,99519.72
2023-02-18T09:33:47.574Z,99516.13
2023-02-18T09:36:14.449Z,99519.50
2023-02-18T09:38:41.380Z,99512.56
2023-02-18T09:41:15.831Z,99512.41
2023-02-18T09:43:48.229Z,99516.22
2023-02-18T09:46:21.697Z,99514.44
2023-02-18T09:48:49.175Z,99507.38
2023-02-18T09:51:17.136Z,99503.84
2023-02-18T09:53:45.383Z,99500.94
2023-02-18T09:56:20.777Z,99507.28
2023-02-18T09:58:49.074Z,99506.09
2023-02-18T10:01:38.328Z,99499.13
2023-02-18T10:04:15.209Z,99501.44
2023-02-18T10:06:43.410Z,99499.63
2023-02-18T10:09:19.826Z,99493.44
2023-02-18T10:11:51.375Z,99484.31
2023-02-18T10:14:18.949Z,99494.50
2023-02-18T10:16:47.417Z,99479.94
2023-02-18T10:19:23.285Z,99485.72
2023-02-18T10:21:51.937Z,99477.63
2023-02-18T10:24:30.190Z,99482.59
2023-02-18T10:26:57.573Z,99487.59
2023-02-18T10:29:25.255Z,99479.66
2023-02-18T10:32:16.295Z,99481.91
2023-02-18T10:34:49.671Z,99477.88
2023-02-18T10:37:37.866Z,99471.72
2023-02-18T10:40:16.833Z,99472.72
2023-02-18T10:43:04.020Z,99471.88
2023-02-18T10:45:45.790Z,99461.84
2023-02-18T10:48:24.632Z,99465.16
2023-02-18T10:50:51.370Z,99452.09
2023-02-18T10:53:29.941Z,99476.94
2023-02-18T10:55:58.873Z,99466.88
2023-02-18T10:58:27.431Z,99457.44
2023-02-18T11:00:54.612Z,99454.09
2023-02-18T11:03:27.092Z,99457.41
2023-02-18T11:05:56.920Z,99449.13
2023-02-18T11:08:28.975Z,99451.63
2023-02-18T11:10:56.585Z,99447.16
2023-02-18T11:13:28.892Z,99446.31
2023-02-18T11:16:02.055Z,99432.13
2023-02-18T11:18:40.891Z,99422.56
2023-02-18T11:21:37.607Z,99426.28
2023-02-18T11:24:15.032Z,99406.13
2023-02-18T11:26:44.319Z,99413.34
2023-02-18T11:29:31.991Z,99411.84
2023-02-18T11:31:59.970Z,99403.72
2023-02-18T11:34:31.143Z,99396.72
2023-02-18T11:37:13.323Z,99406.03
2023-02-18T11:39:45.562Z,99391.16
2023-02-18T11:42:15.227Z,99383.75
2023-02-18T11:44:49.536Z,99382.19
2023-02-18T11:47:16.213Z,99384.44
2023-02-18T11:49:44.554Z,99366.91
2023-02-18T11:52:34.280Z,99364.72
2023-02-18T11:55:01.676Z,99363.31
2023-02-18T11:57:29.377Z,99360.59
2023-02-18T11:59:57.325Z,99349.84
2023-02-18T12:02:30.034Z,99350.00
2023-02-18T12:05:03.567Z,99343.69
2023-02-18T12:07:35.404Z,99340.78
2023-02-18T12:10:14.981Z,99340.56
2023-02-18T12:12:47.103Z,99327.25
2023-02-18T12:15:23.782Z,99323.69
2023-02-18T12:18:11.299Z,99321.09
2023-02-18T12:20:54.764Z,99320.13
2023-02-18T12:23:37.741Z,99309.34
2023-02-18T12:26:22.546Z,99298.31
2023-02-18T12:29:31.849Z,99298.34
2023-02-18T12:32:25.218Z,99291.03
2023-02-18T12:35:15.765Z,99274.66
2023-02-18T12:37:59.882Z,99283.47
2023-02-18T12:40:50.509Z,99276.44
2023-02-18T12:43:23.034Z,99263.28
2023-02-18T12:45:59.147Z,99257.19
2023-02-18T12:48:57.678Z,99255.88
2023-02-18T12:51:53.244Z,99254.69
2023-02-18T12:54:39.729Z,99248.78
2023-02-18T12:57:24.380Z,99246.44
2023-02-18T12:59:53.726Z,99241.44
2023-02-18T13:02:54.358Z,99241.38
2023-02-18T13:05:44.478Z,99234.31
2023-02-18T13:08:19.913Z,99238.38
2023-02-18T13:11:15.101Z,99232.66
2023-02-18T13:14:10.917Z,99233.72
2023-02-18T13:16:39.602Z,99223.91
2023-02-18T13:19:18.365Z,99225.75
2023-02-18T13:21:48.399Z,99201.03
2023-02-18T13:24:27.355Z,99211.00
2023-02-18T13:27:04.036Z,99214.00
2023-02-18T13:29:39.699Z,99199.59
2023-02-18T13:32:43.901Z,99201.94
2023-02-18T13:35:13.287Z,99199.38
2023-02-18T13:37:55.036Z,99191.84
2023-02-18T13:40:25.632Z,99192.50
2023-02-18T13:42:53.416Z,99187.56
2023-02-18T13:45:24.748Z,99183.09
2023-02-18T13:47:51.889Z,99178.03
2023-02-18T13:50:27.348Z,99185.97
2023-02-18T13:53:20.113Z,99176.66
2023-02-18T13:55:58.427Z,99161.53
2023-02-18T13:58:25.059Z,99162.25
2023-02-18T14:01:21.169Z,99153.31
2023-02-18T14:03:47.811Z,99153.94
2023-02-18T14:06:17.088Z,99158.06
2023-02-18T14:08:44.883Z,99153.00
2023-02-18T14:11:11.392Z,99155.78
2023-02-18T14:13:42.733Z,99150.78
2023-02-18T14:16:10.924Z,99156.88
2023-02-18T14:18:40.693Z,99150.38
2023-02-18T14:21:13.020Z,99152.56
2023-02-18T14:23:51.595Z,99149.09
2023-02-18T14:26:25.184Z,99146.75
2023-02-18T14:28:59.876Z,99135.09
2023-02-18T14:31:41.316Z,99140.03
2023-02-18T14:34:32.539Z,99140.75
2023-02-18T14:37:10.892Z,99137.44
2023-02-18T14:39:59.151Z,99144.44
2023-02-18T14:43:25.312Z,99139.44
2023-02-18T14:46:19.904Z,99135.47
2023-02-18T14:49:04.959Z,99131.97
2023-02-18T14:51:34.153Z,99137.94
2023-02-18T14:54:13.584Z,99136.28
2023-02-18T14:56:56.409Z,99130.31
2023-02-18T14:59:31.616Z,99127.63
2023-02-18T15:01:58.362Z,99123.56
2023-02-18T15:04:26.306Z,99125.97
2023-02-18T15:07:01.915Z,99127.81
2023-02-18T15:09:29.065Z,99129.63
2023-02-18T15:12:05.771Z,99130.91
2023-02-18T15:14:36.967Z,99126.75
2023-02-18T15:17:05.573Z,99118.03
2023-02-18T15:19:41.101Z,99124.34
2023-02-18T15:22:17.179Z,99119.53
2023-02-18T15:24:44.364Z,99124.19
2023-02-18T15:27:16.809Z,99129.44
2023-02-18T15:29:43.743Z,99122.88
2023-02-18T15:32:20.323Z,99122.44
2023-02-18T15:34:58.013Z,99123.94
2023-02-18T15:37:24.762Z,99128.41
2023-02-18T15:39:51.560Z,99124.41
2023-02-18T15:42:28.812Z,99122.25
2023-02-18T15:45:15.458Z,99124.66
2023-02-18T15:47:48.066Z,99119.94
2023-02-18T15:50:25.185Z,99114.00
2023-02-18T15:52:54.645Z,99123.75
2023-02-18T15:55:32.506Z,99115.03
2023-02-18T15:58:05.310Z,99113.34
2023-02-18T16:00:39.442Z,99117.59
2023-02-18T16:03:16.846Z,99122.81
2023-02-18T16:05:43.499Z,99123.75
2023-02-18T16:08:26.125Z,99119.41
2023-02-18T16:10:58.169Z,99123.06
2023-02-18T16:13:26.927Z,99111.25
2023-02-18T16:15:53.765Z,99106.25
2023-02-18T16:18:35.177Z,99103.78
2023-02-18T16:21:20.237Z,99113.47
2023-02-18T16:24:01.616Z,99110.53
2023-02-18T16:26:28.293Z,99111.78
2023-02-18T16:29:00.051Z,99110.88
2023-02-18T16:31:26.916Z,99105.13
2023-02-18T16:33:53.596Z,99105.97
2023-02-18T16:36:22.693Z,99111.91
2023-02-18T16:38:49.367Z,99115.53
2023-02-18T16:41:16.249Z,99113.13
2023-02-18T16:43:43.125Z,99117.44
2023-02-18T16:46:22.825Z,99115.34
2023-02-18T16:48:51.783Z,99115.94
2023-02-18T16:51:26.149Z,99120.06
2023-02-18T16:53:52.891Z,99121.97
2023-02-18T16:56:25.766Z,99130.81
2023-02-18T16:58:52.597Z,99129.72
2023-02-18T17:01:44.140Z,99140.19
2023-02-18T17:04:13.536Z,99144.84
2023-02-18T17:06:40.777Z,99139.50
2023-02-18T17:09:17.024Z,99148.47
2023-02-18T17:11:45.937Z,99151.09
2023-02-18T17:14:20.201Z,99143.19
2023-02-18T17:16:48.679Z,99153.59
2023-02-18T17:19:16.043Z,99153.03
2023-02-18T17:21:43.704Z,99159.28
2023-02-18T17:24:14.411Z,99156.22
2023-02-18T17:26:41.495Z,99164.72
2023-02-18T17:29:08.285Z,99158.69
2023-02-18T17:31:47.427Z,99173.16
2023-02-18T17:34:20.972Z,99168.31
2023-02-18T17:36:47.691Z,99170.28
2023-02-18T17:39:17.284Z,99176.16
2023-02-18T17:41:44.576Z,99174.44
2023-02-18T17:44:22.063Z,99175.22
2023-02-18T17:46:52.402Z,99170.13
2023-02-18T17:49:19.310Z,99182.16
2023-02-18T17:51:45.997Z,99175.34
2023-02-18T17:54:14.721Z,99180.47
2023-02-18T17:56:41.917Z,99189.06
2023-02-18T17:59:08.785Z,99189.97
2023-02-18T18:01:35.553Z,99194.59
2023-02-18T18:04:02.348Z,99190.50
2023-02-18T18:06:29.234Z,99188.00
2023-02-18T18:08:55.993Z,99187.06
2023-02-18T18:11:24.676Z,99184.34
2023-02-18T18:13:52.999Z,99201.38
2023-02-18T18:16:20.566Z,99201.66
2023-02-18T18:18:47.382Z,99196.78
2023-02-18T18:21:29.366Z,99192.69
2023-02-18T18:23:55.953Z,99196.69
2023-02-18T18:26:22.707Z,99190.75
2023-02-18T18:28:49.493Z,99192.66
2023-02-18T18:31:20.722Z,99189.34
2023-02-18T18:33:53.300Z,99190.97
2023-02-18T18:36:21.733Z,99187.47
2023-02-18T18:38:48.417Z,99194.34
2023-02-18T18:41:21.542Z,99192.78
2023-02-18T18:43:49.534Z,99196.00
2023-02-18T18:46:16.381Z,99195.16
2023-02-18T18:48:43.108Z,99193.09
2023-02-18T18:51:27.342Z,99205.53
2023-02-18T18:53:54.185Z,99200.13
2023-02-18T18:56:21.917Z,99201.34
2023-02-18T18:58:49.534Z,99199.19
2023-02-18T19:01:23.185Z,99199.31
2023-02-18T19:03:50.088Z,99203.66
2023-02-18T19:06:17.524Z,99199.13
2023-02-18T19:08:45.573Z,99195.38
2023-02-18T19:11:12.865Z,99201.41
2023-02-18T19:13:40.330Z,99207.81
2023-02-18T19:16:26.589Z,99205.44
2023-02-18T19:18:54.279Z,99204.69
2023-02-18T19:21:20.910Z,99211.72
2023-02-18T19:23:47.886Z,99216.78
2023-02-18T19:26:16.714Z,99203.97
2023-02-18T19:28:44.896Z,99199.34
2023-02-18T19:31:12.022Z,99212.59
2023-02-18T19:33:39.334Z,99208.53
2023-02-18T19:36:10.931Z,99212.13
2023-02-18T19:38:37.817Z,99222.69
2023-02-18T19:41:12.783Z,99211.22
2023-02-18T19:43:44.006Z,99215.69
2023-02-18T19:46:17.389Z,99219.56
2023-02-18T19:48:49.466Z,99211.84
2023-02-18T19:51:16.314Z,99221.06
2023-02-18T19:53:43.005Z,99220.25
2023-02-18T19:56:09.773Z,99219.50
2023-02-18T19:58:40.095Z,99220.44
2023-02-18T20:01:17.635Z,99223.63
2023-02-18T20:03:44.434Z,99221.06
2023-02-18T20:06:19.141Z,99230.22
2023-02-18T20:08:46.637Z,99229.41
2023-02-18T20:11:13.285Z,99224.34
2023-02-18T20:13:40.236Z,99211.16
2023-02-18T20:16:08.700Z,99219.66
2023-02-18T20:18:36.101Z,99216.16
2023-02-18T20:21:02.852Z,99222.91
2023-02-18T20:23:29.465Z,99219.66
2023-02-18T20:25:56.141Z,99228.91
2023-02-18T20:28:22.842Z,99229.34
2023-02-18T20:30:49.407Z,99225.94
2023-02-18T20:33:16.114Z,99221.88
2023-02-18T20:35:42.687Z,99234.59
2023-02-18T20:38:09.336Z,99224.31
2023-02-18T20:40:36.009Z,99227.88
2023-02-18T20:43:02.811Z,99233.44
2023-02-18T20:45:29.507Z,99231.00
2023-02-18T20:47:56.401Z,99229.53
2023-02-18T20:50:23.041Z,99238.91
2023-02-18T20:52:49.682Z,99224.25
2023-02-18T20:55:16.389Z,99229.66
2023-02-18T20:57:43.158Z,99237.44
2023-02-18T21:00:10.519Z,99236.44
2023-02-18T21:02:37.204Z,99241.69
2023-02-18T21:05:04.122Z,99239.66
2023-02-18T21:07:30.924Z,99230.25
2023-02-18T21:09:57.521Z,99234.66
2023-02-18T21:12:24.255Z,99240.34
2023-02-18T21:14:50.840Z,99241.56
2023-02-18T21:17:17.492Z,99242.22
2023-02-18T21:19:44.153Z,99243.09
2023-02-18T21:22:10.834Z,99235.06
2023-02-18T21:24:37.485Z,99237.75
2023-02-18T21:27:04.340Z,99236.03
2023-02-18T21:29:31.081Z,99234.53
2023-02-18T21:31:57.958Z,99243.75
2023-02-18T21:34:26.030Z,99243.59
2023-02-18T21:36:52.672Z,99237.34
2023-02-18T21:39:19.260Z,99241.16
2023-02-18T21:41:45.985Z,99237.03
2023-02-18T21:44:12.544Z,99234.47
2023-02-18T21:46:39.664Z,99237.84
2023-02-18T21:49:09.403Z,99231.56
2023-02-18T21:51:57.470Z,99228.75
2023-02-18T21:54:37.443Z,99233.94
2023-02-18T21:57:06.118Z,99227.63
2023-02-18T21:59:34.362Z,99231.06
2023-02-18T22:02:02.330Z,99235.25
2023-02-18T22:04:30.919Z,99237.63
2023-02-18T22:06:58.359Z,99236.88
2023-02-18T22:09:25.974Z,99224.09
2023-02-18T22:11:52.702Z,99233.72
2023-02-18T22:14:19.284Z,99228.50
2023-02-18T22:16:46.104Z,99236.44
2023-02-18T22:19:14.117Z,99228.66
2023-02-18T22:21:41.498Z,99233.84
2023-02-18T22:24:08.973Z,99225.56
2023-02-18T22:26:35.688Z,99225.66
2023-02-18T22:29:02.535Z,99222.41
2023-02-18T22:31:31.271Z,99229.97
2023-02-18T22:33:59.493Z,99218.81
2023-02-18T22:36:27.685Z,99225.56
2023-02-18T22:38:54.526Z,99230.94
2023-02-18T22:41:23.578Z,99230.22
2023-02-18T22:44:11.829Z,99229.25
2023-02-18T22:46:39.360Z,99225.38
2023-02-18T22:49:07.326Z,99224.53
2023-02-18T22:51:37.833Z,99227.22
2023-02-18T22:54:12.289Z,99225.59
2023-02-18T22:56:39.186Z,99226.56
2023-02-18T22:59:06.096Z,99225.69
2023-02-18T23:01:38.962Z,99230.81
2023-02-18T23:04:17.127Z,99226.53
2023-02-18T23:06:46.028Z,99224.56
2023-02-18T23:09:15.757Z,99228.31
2023-02-18T23:11:42.671Z,99224.41
2023-02-18T23:14:18.708Z,99225.38
2023-02-18T23:17:06.171Z,99232.19
2023-02-18T23:19:33.556Z,99223.75
2023-02-18T23:22:00.259Z,99236.22
2023-02-18T23:24:26.995Z,99234.53
2023-02-18T23:26:53.619Z,99225.53
2023-02-18T23:29:20.909Z,99233.34
2023-02-18T23:31:47.802Z,99234.16
2023-02-18T23:34:16.318Z,99238.66
2023-02-18T23:36:43.371Z,99226.56
2023-02-18T23:39:12.012Z,99232.47
2023-02-18T23:41:38.643Z,99229.03
2023-02-18T23:44:07.367Z,99219.91
2023-02-18T23:46:34.726Z,99225.91
2023-02-18T23:49:01.707Z,99217.50
2023-02-18T23:51:29.790Z,99218.22
2023-02-18T23:53:57.253Z,99209.88
2023-02-18T23:56:24.889Z,99219.22
2023-02-18T23:58:57.463Z,99216.78
